Time;durP1;ratioP1;P1;durP2;ratioP2;P2;SDS_P1;SDS_P2;PMS_P1;PMS_P2;Temp;Humidity;BMP_temperature;BMP_pressure;BME280_temperature;BME280_humidity;BME280_pressure;Samples;Min_cycle;Max_cycle;Signal;HPM_P1;HPM_P2
2021/04/28 00:01:57;;;;;;;;;;;;;;;4.40;67.32;100405.66;1753435;80;20202;-59
2021/04/28 00:04:25;;;;;;;;;;;;;;;4.42;67.30;100410.79;1765925;80;20496;-58
2021/04/28 00:06:53;;;;;;;;;;;;;;;4.43;67.18;100410.64;1771305;80;20218;-59
2021/04/28 00:09:22;;;;;;;;;;;;;;;4.41;67.00;100412.63;1769728;80;20209;-57
2021/04/28 00:11:50;;;;;;;;;;;;;;;4.37;66.89;100410.84;1768850;80;21188;-58
2021/04/28 00:14:18;;;;;;;;;;;;;;;4.32;66.84;100407.88;1767048;80;20232;-58
2021/04/28 00:16:47;;;;;;;;;;;;;;;4.28;66.84;100409.22;1769206;80;20291;-58
2021/04/28 00:19:15;;;;;;;;;;;;;;;4.23;66.84;100406.80;1765692;80;20143;-57
2021/04/28 00:21:43;;;;;;;;;;;;;;;4.19;66.80;100411.61;1771530;80;20151;-58
2021/04/28 00:24:12;;;;;;;;;;;;;;;4.18;66.70;100409.47;1770485;80;21213;-57
2021/04/28 00:26:40;;;;;;;;;;;;;;;4.15;66.62;100410.30;1770463;80;20682;-58
2021/04/28 00:29:08;;;;;;;;;;;;;;;4.12;66.53;100410.17;1768138;80;20139;-58
2021/04/28 00:31:36;;;;;;;;;;;;;;;4.09;66.58;100407.84;1766985;80;20252;-59
2021/04/28 00:34:04;;;;;;;;;;;;;;;4.06;66.64;100408.70;1766147;80;20507;-60
2021/04/28 00:36:32;;;;;;;;;;;;;;;4.04;66.63;100414.19;1770076;80;21202;-58
2021/04/28 00:39:00;;;;;;;;;;;;;;;4.02;66.67;100411.70;1767785;80;20210;-58
2021/04/28 00:41:28;;;;;;;;;;;;;;;4.01;66.40;100410.55;1769664;80;20228;-58
2021/04/28 00:43:56;;;;;;;;;;;;;;;3.96;66.14;100408.42;1767763;80;20152;-58
2021/04/28 00:46:25;;;;;;;;;;;;;;;3.92;66.00;100412.42;1765807;80;20235;-57
2021/04/28 00:48:53;;;;;;;;;;;;;;;3.86;65.88;100413.94;1770333;80;21203;-58
2021/04/28 00:51:21;;;;;;;;;;;;;;;3.81;65.80;100414.97;1742742;80;20245;-58
2021/04/28 00:53:49;;;;;;;;;;;;;;;3.78;65.78;100415.80;1774878;80;20149;-60
2021/04/28 00:56:17;;;;;;;;;;;;;;;3.73;65.78;100411.52;1761698;80;20269;-58
2021/04/28 00:58:45;;;;;;;;;;;;;;;3.69;65.83;100418.98;1775350;80;20153;-58
2021/04/28 01:01:13;;;;;;;;;;;;;;;3.64;65.94;100416.03;1773886;79;21094;-58
2021/04/28 01:03:42;;;;;;;;;;;;;;;3.61;66.06;100418.52;1773650;80;20153;-58
2021/04/28 01:06:11;;;;;;;;;;;;;;;3.56;66.16;100418.19;1758011;80;20232;-59
2021/04/28 01:08:39;;;;;;;;;;;;;;;3.48;66.31;100419.05;1759487;80;20225;-60
2021/04/28 01:11:07;;;;;;;;;;;;;;;3.45;66.46;100416.73;1760920;80;20298;-60
2021/04/28 01:13:38;;;;;;;;;;;;;;;3.43;66.46;100420.07;1771912;80;20133;-59
2021/04/28 01:16:06;;;;;;;;;;;;;;;3.44;66.59;100420.37;1762921;80;20138;-60
2021/04/28 01:18:35;;;;;;;;;;;;;;;3.44;66.70;100420.37;1777089;80;20216;-58
2021/04/28 01:21:04;;;;;;;;;;;;;;;3.45;66.72;100421.22;1775648;80;20166;-58
2021/04/28 01:23:32;;;;;;;;;;;;;;;3.46;66.75;100417.55;1775783;80;20229;-58
2021/04/28 01:26:00;;;;;;;;;;;;;;;3.49;66.80;100423.87;1775681;80;21146;-58
2021/04/28 01:28:28;;;;;;;;;;;;;;;3.53;66.71;100419.04;1774011;80;20172;-59
2021/04/28 01:31:00;;;;;;;;;;;;;;;3.55;66.39;100424.51;1773889;80;20137;-59
2021/04/28 01:33:41;;;;;;;;;;;;;;;3.54;66.14;100426.82;1760963;80;20192;-59
2021/04/28 01:36:22;;;;;;;;;;;;;;;3.51;66.06;100427.16;1773677;80;20291;-58
2021/04/28 01:38:52;;;;;;;;;;;;;;;3.45;66.05;100432.64;1775120;80;21159;-58
2021/04/28 01:41:21;;;;;;;;;;;;;;;3.38;66.19;100430.34;1775446;79;20241;-59
2021/04/28 01:43:50;;;;;;;;;;;;;;;3.34;66.25;100434.31;1777060;80;20147;-59
2021/04/28 01:46:18;;;;;;;;;;;;;;;3.30;66.33;100430.37;1775629;80;20494;-58
2021/04/28 01:48:47;;;;;;;;;;;;;;;3.25;66.46;100426.06;1773053;80;20402;-59
2021/04/28 01:51:16;;;;;;;;;;;;;;;3.22;66.51;100427.73;1775595;79;21309;-58
2021/04/28 01:53:45;;;;;;;;;;;;;;;3.15;66.61;100425.76;1782848;80;20751;-59
2021/04/28 01:56:13;;;;;;;;;;;;;;;3.10;66.72;100433.87;1775873;80;20486;-59
2021/04/28 01:58:54;;;;;;;;;;;;;;;3.08;66.92;100434.05;1826553;77;20256;-58
2021/04/28 02:01:52;;;;;;;;;;;;;;;3.01;67.08;100432.23;1838059;77;20123;-59
2021/04/28 02:04:22;;;;;;;;;;;;;;;3.01;67.05;100434.38;1835712;77;21207;-56
2021/04/28 02:06:50;;;;;;;;;;;;;;;3.01;67.10;100438.34;1836520;77;20142;-57
2021/04/28 02:09:18;;;;;;;;;;;;;;;3.04;67.05;100434.55;1832876;77;20197;-58
2021/04/28 02:11:46;;;;;;;;;;;;;;;3.06;66.99;100435.20;1833606;77;20582;-59
2021/04/28 02:14:15;;;;;;;;;;;;;;;3.09;66.81;100438.83;1833535;77;20207;-57
2021/04/28 02:16:56;;;;;;;;;;;;;;;3.07;66.64;100444.30;1832546;77;21396;-58
2021/04/28 02:19:26;;;;;;;;;;;;;;;3.00;66.86;100443.31;1834715;77;20130;-58
2021/04/28 02:21:55;;;;;;;;;;;;;;;2.98;67.23;100447.95;1793328;77;20217;-59
2021/04/28 02:24:24;;;;;;;;;;;;;;;2.94;67.50;100455.90;1832268;77;20234;-58
2021/04/28 02:26:58;;;;;;;;;;;;;;;2.92;67.85;100463.19;1800111;77;20211;-58
2021/04/28 02:29:27;;;;;;;;;;;;;;;2.94;68.00;100461.19;1662698;85;21228;-58
2021/04/28 02:31:55;;;;;;;;;;;;;;;2.94;67.93;100466.48;1637322;85;20814;-58
2021/04/28 02:34:26;;;;;;;;;;;;;;;2.95;67.49;100470.30;1660312;85;20610;-59
2021/04/28 02:37:04;;;;;;;;;;;;;;;3.03;67.13;100465.99;1817060;77;20237;-58
2021/04/28 02:39:42;;;;;;;;;;;;;;;3.00;66.93;100463.17;1805614;79;20580;-58
2021/04/28 02:42:10;;;;;;;;;;;;;;;3.01;66.84;100464.84;1803026;79;20513;-57
2021/04/28 02:44:38;;;;;;;;;;;;;;;3.05;66.66;100460.02;1801992;79;20141;-58
2021/04/28 02:47:08;;;;;;;;;;;;;;;3.06;66.54;100461.20;1798776;79;20229;-58
2021/04/28 02:49:38;;;;;;;;;;;;;;;3.07;66.47;100457.55;1769825;79;20533;-60
2021/04/28 02:52:23;;;;;;;;;;;;;;;3.09;66.39;100464.00;1799244;79;20487;-59
2021/04/28 02:54:51;;;;;;;;;;;;;;;3.10;66.36;100459.04;1803095;79;22308;-59
2021/04/28 02:57:21;;;;;;;;;;;;;;;3.10;66.30;100455.88;1801681;79;20275;-60
2021/04/28 02:59:50;;;;;;;;;;;;;;;3.11;66.29;100456.22;1800965;79;20212;-59
2021/04/28 03:02:19;;;;;;;;;;;;;;;3.12;66.36;100462.34;1801822;79;20149;-59
2021/04/28 03:04:48;;;;;;;;;;;;;;;3.15;66.40;100462.84;1799542;79;20232;-59
2021/04/28 03:07:19;;;;;;;;;;;;;;;3.17;66.40;100460.03;1743123;79;21407;-59
2021/04/28 03:09:47;;;;;;;;;;;;;;;3.20;66.38;100469.47;1801304;79;20291;-59
2021/04/28 03:12:16;;;;;;;;;;;;;;;3.21;66.56;100470.63;1801550;79;20152;-58
2021/04/28 03:14:45;;;;;;;;;;;;;;;3.23;66.62;100467.81;1801801;79;20313;-58
2021/04/28 03:17:13;;;;;;;;;;;;;;;3.28;66.66;100473.42;1800671;79;20148;-58
2021/04/28 03:19:43;;;;;;;;;;;;;;;3.36;66.72;100471.25;1782026;79;21202;-59
2021/04/28 03:22:11;;;;;;;;;;;;;;;3.45;66.72;100475.05;1802713;79;20120;-58
2021/04/28 03:24:39;;;;;;;;;;;;;;;3.59;66.68;100479.33;1801032;79;20235;-58
2021/04/28 03:27:09;;;;;;;;;;;;;;;3.73;66.66;100479.95;1802055;79;21095;-58
2021/04/28 03:29:40;;;;;;;;;;;;;;;4.02;66.52;100483.34;1807199;79;20137;-58
2021/04/28 03:32:08;;;;;;;;;;;;;;;4.57;66.10;100476.75;1808793;79;21145;-58
2021/04/28 03:34:40;;;;;;;;;;;;;;;5.30;64.86;100492.28;1808886;79;22015;-59
2021/04/28 03:37:08;;;;;;;;;;;;;;;5.99;63.21;100488.59;1808848;79;20216;-58
2021/04/28 03:39:45;;;;;;;;;;;;;;;6.62;61.74;100486.27;1807315;79;20133;-58
2021/04/28 03:42:13;;;;;;;;;;;;;;;7.12;59.97;100493.80;1807678;79;20498;-59
2021/04/28 03:44:41;;;;;;;;;;;;;;;7.34;58.66;100493.25;1771048;79;21201;-58
2021/04/28 03:47:09;;;;;;;;;;;;;;;7.42;57.91;100501.64;1802102;79;20217;-58
2021/04/28 03:49:40;;;;;;;;;;;;;;;7.33;57.43;100503.62;1805060;79;20220;-59
2021/04/28 03:52:07;;;;;;;;;;;;;;;7.12;57.26;100509.80;1809790;79;20125;-59
2021/04/28 03:54:43;;;;;;;;;;;;;;;6.92;57.47;100514.11;1806372;78;20303;-59
2021/04/28 03:57:11;;;;;;;;;;;;;;;6.78;57.62;100511.84;1803409;79;21224;-59
2021/04/28 03:59:39;;;;;;;;;;;;;;;6.82;57.69;100515.27;1805165;79;20232;-57
2021/04/28 04:02:07;;;;;;;;;;;;;;;6.99;57.42;100511.01;1809435;79;20172;-60
2021/04/28 04:04:55;;;;;;;;;;;;;;;7.05;57.24;100511.57;1806082;79;20239;-60
2021/04/28 04:07:24;;;;;;;;;;;;;;;7.09;57.27;100520.03;1777225;79;21065;-59
2021/04/28 04:10:07;;;;;;;;;;;;;;;7.23;57.68;100519.63;1807672;78;21450;-59
2021/04/28 04:12:34;;;;;;;;;;;;;;;7.81;57.14;100516.25;1810065;79;20264;-59
2021/04/28 04:15:06;;;;;;;;;;;;;;;8.57;55.74;100514.06;1806356;79;20236;-58
2021/04/28 04:17:33;;;;;;;;;;;;;;;9.28;54.26;100514.58;1804037;79;20522;-58
2021/04/28 04:20:04;;;;;;;;;;;;;;;9.90;53.08;100523.67;1800535;79;20244;-60
2021/04/28 04:22:37;;;;;;;;;;;;;;;10.47;52.21;100518.55;1757118;79;21392;-60
2021/04/28 04:25:13;;;;;;;;;;;;;;;11.01;50.15;100515.02;1773523;79;20212;-61
2021/04/28 04:27:41;;;;;;;;;;;;;;;11.49;48.45;100521.14;1732332;79;20249;-60
2021/04/28 04:30:18;;;;;;;;;;;;;;;11.82;47.05;100528.58;1798729;79;20224;-62
2021/04/28 04:33:09;;;;;;;;;;;;;;;11.89;46.33;100529.34;1800397;79;20240;-61
2021/04/28 04:35:41;;;;;;;;;;;;;;;12.02;46.96;100529.75;1786100;79;21227;-61
2021/04/28 04:38:27;;;;;;;;;;;;;;;12.24;46.62;100530.94;1796498;79;20263;-61
2021/04/28 04:41:12;;;;;;;;;;;;;;;12.53;46.03;100539.27;1772086;79;20133;-60
2021/04/28 04:43:58;;;;;;;;;;;;;;;12.78;45.44;100543.17;1795537;79;20298;-60
2021/04/28 04:46:28;;;;;;;;;;;;;;;13.01;44.86;100538.91;1788733;79;20289;-60
2021/04/28 04:48:56;;;;;;;;;;;;;;;13.22;44.66;100544.30;1798406;79;21237;-61
2021/04/28 04:51:24;;;;;;;;;;;;;;;13.39;44.40;100542.30;1793222;79;20802;-60
2021/04/28 04:53:52;;;;;;;;;;;;;;;13.52;44.02;100546.12;1799947;79;20491;-60
2021/04/28 04:56:20;;;;;;;;;;;;;;;13.64;43.56;100549.63;1797354;79;20208;-60
2021/04/28 04:58:48;;;;;;;;;;;;;;;13.81;43.28;100552.98;1799853;79;20578;-60
2021/04/28 05:01:16;;;;;;;;;;;;;;;13.97;42.93;100560.35;1789460;79;21142;-61
2021/04/28 05:03:43;;;;;;;;;;;;;;;14.13;42.85;100562.86;1762828;79;20237;-60
2021/04/28 05:06:11;;;;;;;;;;;;;;;14.27;42.80;100572.03;1791098;79;20221;-61
2021/04/28 05:08:39;;;;;;;;;;;;;;;14.43;42.51;100569.94;1782179;79;20231;-62
2021/04/28 05:11:07;;;;;;;;;;;;;;;14.60;41.68;100574.03;1789201;79;20220;-60
2021/04/28 05:13:35;;;;;;;;;;;;;;;14.76;41.61;100575.72;1793996;79;21209;-61
2021/04/28 05:16:03;;;;;;;;;;;;;;;14.89;41.05;100576.78;1795367;79;20220;-60
2021/04/28 05:18:31;;;;;;;;;;;;;;;15.01;40.76;100585.63;1762565;79;20333;-61
2021/04/28 05:21:00;;;;;;;;;;;;;;;15.12;40.78;100588.00;1793512;79;20153;-61
2021/04/28 05:23:28;;;;;;;;;;;;;;;15.23;40.64;100587.64;1797880;79;20169;-61
2021/04/28 05:26:03;;;;;;;;;;;;;;;15.34;40.62;100588.11;1798277;79;21400;-61
2021/04/28 05:28:31;;;;;;;;;;;;;;;15.46;40.42;100595.30;1764598;79;20321;-61
2021/04/28 05:30:59;;;;;;;;;;;;;;;15.54;39.21;100593.02;1792942;79;20142;-60
2021/04/28 05:33:27;;;;;;;;;;;;;;;15.62;39.13;100596.37;1767925;79;20181;-60
2021/04/28 05:35:56;;;;;;;;;;;;;;;15.68;38.84;100597.57;1797114;78;20157;-60
2021/04/28 05:38:24;;;;;;;;;;;;;;;15.62;37.85;100601.78;1808363;78;21158;-61
2021/04/28 05:40:52;;;;;;;;;;;;;;;15.42;39.13;100600.39;1769392;79;20277;-61
2021/04/28 05:43:20;;;;;;;;;;;;;;;15.35;38.84;100608.63;1811478;78;20145;-62
2021/04/28 05:45:47;;;;;;;;;;;;;;;15.23;39.23;100616.00;1810826;78;20279;-63
2021/04/28 05:48:15;;;;;;;;;;;;;;;15.17;39.50;100611.57;1809594;78;20267;-60
2021/04/28 05:50:44;;;;;;;;;;;;;;;15.06;40.33;100622.70;1809902;78;21192;-60
2021/04/28 05:53:12;;;;;;;;;;;;;;;15.03;40.80;100618.62;1806719;78;20132;-61
2021/04/28 05:55:41;;;;;;;;;;;;;;;15.13;40.71;100622.56;1805893;78;20196;-60
2021/04/28 05:58:09;;;;;;;;;;;;;;;15.24;41.04;100633.30;1810780;78;20214;-61
2021/04/28 06:00:37;;;;;;;;;;;;;;;15.35;40.15;100626.73;1803787;78;20594;-60
2021/04/28 06:03:06;;;;;;;;;;;;;;;15.45;40.41;100626.91;1809550;78;21205;-60
2021/04/28 06:05:34;;;;;;;;;;;;;;;15.52;40.08;100630.82;1810864;78;20157;-60
2021/04/28 06:08:04;;;;;;;;;;;;;;;15.59;40.35;100632.80;1814151;78;20489;-61
2021/04/28 06:10:31;;;;;;;;;;;;;;;15.65;39.25;100637.77;1811603;78;20589;-61
2021/04/28 06:13:00;;;;;;;;;;;;;;;15.68;39.16;100634.05;1805252;78;20220;-60
2021/04/28 06:15:28;;;;;;;;;;;;;;;15.73;39.12;100636.82;1770622;78;21368;-60
2021/04/28 06:17:56;;;;;;;;;;;;;;;15.80;39.87;100642.62;1717759;83;20235;-60
2021/04/28 06:20:24;;;;;;;;;;;;;;;15.82;38.94;100637.27;1718680;83;20246;-60
2021/04/28 06:22:52;;;;;;;;;;;;;;;15.77;38.83;100635.27;1718469;83;20247;-61
2021/04/28 06:25:20;;;;;;;;;;;;;;;15.76;38.58;100634.98;1722650;83;20516;-60
2021/04/28 06:31:19;;;;;;;;;;;;;;;15.88;39.32;100639.52;1716207;83;20271;-61
2021/04/28 06:40:36;;;;;;;;;;;;;;;15.85;36.93;100646.23;1796442;79;20481;-59
2021/04/28 06:46:34;;;;;;;;;;;;;;;15.77;38.40;100647.98;1794747;79;20252;-62
2021/04/28 06:52:33;;;;;;;;;;;;;;;15.70;38.09;100651.38;1797270;79;20150;-60
2021/04/28 06:58:20;;;;;;;;;;;;;;;15.71;37.36;100657.07;1795136;79;20200;-60
2021/04/28 07:04:19;;;;;;;;;;;;;;;15.66;36.38;100659.13;1791552;79;20157;-62
2021/04/28 07:10:18;;;;;;;;;;;;;;;15.64;37.43;100668.57;1792208;79;20142;-62
2021/04/28 07:16:17;;;;;;;;;;;;;;;15.63;35.39;100671.78;1790794;79;20300;-60
2021/04/28 07:22:16;;;;;;;;;;;;;;;15.66;37.48;100678.59;1790708;79;20617;-60
2021/04/28 07:28:15;;;;;;;;;;;;;;;15.80;35.46;100674.55;1791677;79;20531;-60
2021/04/28 07:30:43;;;;;;;;;;;;;;;15.88;34.81;100676.82;1782971;79;20308;-59
2021/04/28 07:33:11;;;;;;;;;;;;;;;15.87;35.05;100675.72;1797916;79;20223;-60
2021/04/28 07:35:41;;;;;;;;;;;;;;;15.88;33.57;100676.02;1795439;79;20276;-60
2021/04/28 07:38:09;;;;;;;;;;;;;;;15.84;32.57;100674.34;1795064;79;20256;-60
2021/04/28 07:40:37;;;;;;;;;;;;;;;15.78;33.93;100671.25;1793819;79;21248;-61
2021/04/28 07:43:04;;;;;;;;;;;;;;;15.73;35.11;100675.20;1798701;79;20229;-59
2021/04/28 07:45:35;;;;;;;;;;;;;;;15.67;32.12;100674.84;1796987;79;20515;-60
2021/04/28 07:48:07;;;;;;;;;;;;;;;15.54;31.57;100678.66;1792219;79;21111;-61
2021/04/28 07:50:38;;;;;;;;;;;;;;;15.52;32.83;100680.26;1796936;79;20225;-61
2021/04/28 07:53:06;;;;;;;;;;;;;;;15.50;34.07;100678.34;1792766;79;21192;-61
2021/04/28 07:55:36;;;;;;;;;;;;;;;15.57;31.65;100678.17;1799671;79;20228;-61
2021/04/28 07:58:04;;;;;;;;;;;;;;;15.57;32.69;100680.33;1792706;79;20227;-60
2021/04/28 08:00:32;;;;;;;;;;;;;;;15.58;30.76;100673.88;1787343;79;20195;-60
2021/04/28 08:03:00;;;;;;;;;;;;;;;15.59;28.76;100674.69;1794251;79;20232;-60
2021/04/28 08:05:28;;;;;;;;;;;;;;;15.58;28.92;100671.72;1669545;84;21219;-60
2021/04/28 08:07:56;;;;;;;;;;;;;;;15.57;30.22;100670.06;1664059;85;20218;-60
2021/04/28 08:10:24;;;;;;;;;;;;;;;15.57;28.72;100671.42;1665982;84;20242;-60
2021/04/28 08:12:52;;;;;;;;;;;;;;;15.51;29.41;100666.45;1663580;85;20528;-61
2021/04/28 08:15:20;;;;;;;;;;;;;;;15.50;30.61;100668.89;1646613;85;20269;-61
2021/04/28 08:17:48;;;;;;;;;;;;;;;15.50;29.75;100670.75;1662812;85;21224;-60
2021/04/28 08:20:16;;;;;;;;;;;;;;;15.52;30.41;100668.09;1665320;85;20442;-60
2021/04/28 08:22:44;;;;;;;;;;;;;;;15.52;28.94;100667.30;1682824;79;20267;-61
2021/04/28 08:25:14;;;;;;;;;;;;;;;15.46;30.69;100670.43;1785019;79;20287;-60
2021/04/28 08:27:42;;;;;;;;;;;;;;;15.47;31.13;100669.89;1781869;79;20316;-61
2021/04/28 08:30:12;;;;;;;;;;;;;;;15.52;31.76;100665.94;1783384;79;21235;-61
2021/04/28 08:32:39;;;;;;;;;;;;;;;15.55;30.93;100664.91;1787773;79;20152;-60
2021/04/28 08:35:13;;;;;;;;;;;;;;;15.59;30.56;100660.66;1785681;79;20184;-60
2021/04/28 08:37:39;;;;;;;;;;;;;;;15.61;30.51;100663.12;1786345;79;20212;-61
2021/04/28 08:40:08;;;;;;;;;;;;;;;15.61;30.03;100666.36;1788518;79;20292;-60
2021/04/28 08:42:36;;;;;;;;;;;;;;;15.57;29.60;100666.82;1791082;79;22106;-61
2021/04/28 08:45:05;;;;;;;;;;;;;;;15.56;30.27;100665.20;1792426;79;20308;-61
2021/04/28 08:47:33;;;;;;;;;;;;;;;15.54;30.16;100667.31;1785114;79;20504;-60
2021/04/28 08:50:03;;;;;;;;;;;;;;;15.52;29.07;100665.94;1787519;79;20219;-60
2021/04/28 08:52:37;;;;;;;;;;;;;;;15.52;30.38;100664.05;1782017;79;20597;-60
2021/04/28 08:55:08;;;;;;;;;;;;;;;15.50;31.34;100664.83;1785775;79;21279;-60
2021/04/28 08:57:36;;;;;;;;;;;;;;;15.46;30.39;100669.08;1779482;79;20137;-60
2021/04/28 09:00:05;;;;;;;;;;;;;;;15.36;30.67;100668.36;1791868;79;20165;-59
2021/04/28 09:02:33;;;;;;;;;;;;;;;15.31;31.73;100662.88;1782156;79;20217;-60
2021/04/28 09:05:09;;;;;;;;;;;;;;;15.30;30.36;100663.13;1785938;79;20232;-60
2021/04/28 09:07:38;;;;;;;;;;;;;;;15.27;30.24;100663.58;1784583;79;22121;-60
2021/04/28 09:10:08;;;;;;;;;;;;;;;15.19;28.56;100658.88;1780009;79;20150;-59
2021/04/28 09:12:37;;;;;;;;;;;;;;;15.10;28.32;100665.70;1790080;79;20134;-61
2021/04/28 09:15:06;;;;;;;;;;;;;;;14.98;29.22;100667.64;1784470;79;20226;-61
2021/04/28 09:17:50;;;;;;;;;;;;;;;14.87;30.13;100665.28;1784437;79;20247;-62
2021/04/28 09:20:46;;;;;;;;;;;;;;;14.52;30.68;100668.30;1713084;83;21830;-61
2021/04/28 09:23:34;;;;;;;;;;;;;;;14.16;32.44;100663.48;1775276;79;21302;-61
2021/04/28 09:26:20;;;;;;;;;;;;;;;14.12;32.82;100666.34;1701568;83;20238;-61
2021/04/28 09:29:08;;;;;;;;;;;;;;;14.17;32.87;100666.98;1701443;83;20309;-62
2021/04/28 09:31:37;;;;;;;;;;;;;;;14.16;32.25;100659.94;1739554;79;20300;-62
2021/04/28 09:34:05;;;;;;;;;;;;;;;14.17;32.18;100664.29;1780031;79;21197;-60
2021/04/28 09:36:36;;;;;;;;;;;;;;;14.20;33.00;100659.77;1781909;79;20194;-61
2021/04/28 09:39:09;;;;;;;;;;;;;;;14.25;32.97;100657.20;1800161;78;20231;-62
2021/04/28 09:41:44;;;;;;;;;;;;;;;14.29;30.99;100657.00;1811966;78;20228;-61
2021/04/28 09:44:28;;;;;;;;;;;;;;;14.28;31.17;100659.94;1801583;78;20523;-61
2021/04/28 09:47:16;;;;;;;;;;;;;;;14.22;30.53;100654.14;1800590;78;21198;-61
2021/04/28 09:49:54;;;;;;;;;;;;;;;14.09;29.47;100656.54;1802889;78;20141;-61
2021/04/28 09:52:36;;;;;;;;;;;;;;;13.81;29.17;100652.69;1804246;78;20205;-60
2021/04/28 09:55:08;;;;;;;;;;;;;;;13.43;29.90;100649.85;1804082;78;20244;-60
2021/04/28 09:57:39;;;;;;;;;;;;;;;13.28;29.56;100655.60;1804828;78;20286;-61
2021/04/28 10:00:14;;;;;;;;;;;;;;;13.14;29.84;100657.67;1803998;78;21385;-63
2021/04/28 10:02:42;;;;;;;;;;;;;;;12.99;29.83;100658.08;1806763;78;20515;-61
2021/04/28 10:05:16;;;;;;;;;;;;;;;12.95;29.62;100648.81;1807434;78;20216;-60
2021/04/28 10:07:47;;;;;;;;;;;;;;;12.92;29.58;100651.42;1804564;78;20226;-61
2021/04/28 10:10:15;;;;;;;;;;;;;;;12.90;29.89;100651.38;1803041;78;20313;-61
2021/04/28 10:12:43;;;;;;;;;;;;;;;12.80;30.16;100641.95;1802277;78;21193;-60
2021/04/28 10:15:12;;;;;;;;;;;;;;;12.74;30.54;100642.86;1803152;78;20250;-61
2021/04/28 10:17:39;;;;;;;;;;;;;;;12.78;30.38;100640.02;1804701;78;20227;-60
2021/04/28 10:20:08;;;;;;;;;;;;;;;12.79;30.75;100641.67;1803086;78;20170;-60
2021/04/28 10:22:36;;;;;;;;;;;;;;;12.75;31.91;100639.12;1805888;78;20226;-60
2021/04/28 10:25:06;;;;;;;;;;;;;;;12.79;31.14;100634.95;1805007;78;21210;-62
2021/04/28 10:27:34;;;;;;;;;;;;;;;12.85;31.33;100633.19;1800638;78;20226;-60
2021/04/28 10:30:02;;;;;;;;;;;;;;;12.92;30.14;100631.78;1806927;78;20469;-62
2021/04/28 10:32:30;;;;;;;;;;;;;;;12.87;29.90;100626.27;1806425;78;20275;-60
2021/04/28 10:35:01;;;;;;;;;;;;;;;12.84;30.46;100625.35;1803222;78;20139;-61
2021/04/28 10:37:31;;;;;;;;;;;;;;;12.85;29.59;100633.73;1802415;78;22190;-63
2021/04/28 10:39:59;;;;;;;;;;;;;;;12.71;29.61;100627.17;1782384;79;20307;-61
2021/04/28 10:42:36;;;;;;;;;;;;;;;12.56;30.12;100634.28;1780151;79;20172;-60
2021/04/28 10:45:09;;;;;;;;;;;;;;;12.43;30.35;100633.09;1783372;79;20216;-60
2021/04/28 10:47:40;;;;;;;;;;;;;;;12.33;30.07;100634.13;1785348;79;20300;-61
2021/04/28 10:50:21;;;;;;;;;;;;;;;12.31;30.58;100633.52;1782199;79;21454;-61
2021/04/28 10:53:07;;;;;;;;;;;;;;;12.33;30.42;100624.72;1782802;79;20304;-61
2021/04/28 10:55:49;;;;;;;;;;;;;;;12.34;30.76;100630.41;1782285;79;20244;-60
2021/04/28 10:58:28;;;;;;;;;;;;;;;12.35;30.42;100625.31;1776713;79;20257;-60
2021/04/28 11:01:04;;;;;;;;;;;;;;;12.37;30.31;100630.77;1776357;79;20271;-60
2021/04/28 11:03:39;;;;;;;;;;;;;;;12.35;30.27;100626.66;1783318;79;21201;-61
2021/04/28 11:06:24;;;;;;;;;;;;;;;12.26;30.35;100626.97;1782792;79;20284;-60
2021/04/28 11:09:07;;;;;;;;;;;;;;;12.20;31.25;100618.95;1781140;79;20503;-61
2021/04/28 11:11:36;;;;;;;;;;;;;;;12.26;31.57;100614.03;1783620;79;20502;-62
2021/04/28 11:14:11;;;;;;;;;;;;;;;12.36;31.30;100615.67;1785712;79;20152;-61
2021/04/28 11:16:59;;;;;;;;;;;;;;;12.45;30.75;100614.86;1780521;79;21429;-60
2021/04/28 11:19:35;;;;;;;;;;;;;;;12.48;31.06;100606.87;1786045;79;20180;-61
2021/04/28 11:22:19;;;;;;;;;;;;;;;12.48;30.57;100606.34;1791856;79;20149;-61
2021/04/28 11:25:17;;;;;;;;;;;;;;;12.47;29.91;100610.59;1774230;79;20225;-64
2021/04/28 11:27:57;;;;;;;;;;;;;;;12.44;30.10;100617.27;1828025;77;20181;-61
2021/04/28 11:30:34;;;;;;;;;;;;;;;12.32;29.58;100610.98;1818716;79;20141;-62
2021/04/28 11:33:28;;;;;;;;;;;;;;;12.20;29.94;100610.36;1818997;79;22089;-61
2021/04/28 11:35:59;;;;;;;;;;;;;;;12.14;30.05;100614.48;1723254;83;20649;-62
2021/04/28 11:38:30;;;;;;;;;;;;;;;12.09;30.89;100605.75;1721635;83;20127;-61
2021/04/28 11:41:17;;;;;;;;;;;;;;;12.19;32.22;100600.68;1827097;77;20156;-60
2021/04/28 11:43:51;;;;;;;;;;;;;;;12.21;32.79;100599.92;1801773;79;20128;-61
2021/04/28 11:46:20;;;;;;;;;;;;;;;12.34;31.80;100601.66;1801672;79;21202;-62
2021/04/28 11:48:50;;;;;;;;;;;;;;;12.41;30.72;100590.30;1801520;79;20167;-62
2021/04/28 11:51:22;;;;;;;;;;;;;;;12.42;30.11;100589.77;1802545;79;20642;-61
2021/04/28 11:53:52;;;;;;;;;;;;;;;12.34;30.79;100589.55;1798900;79;20139;-61
2021/04/28 11:56:28;;;;;;;;;;;;;;;12.33;31.46;100593.81;1724737;83;20144;-61
2021/04/28 11:58:57;;;;;;;;;;;;;;;12.39;31.10;100592.38;1723079;83;22134;-61
2021/04/28 12:01:27;;;;;;;;;;;;;;;12.42;30.46;100584.39;1690334;83;20123;-62
2021/04/28 12:04:09;;;;;;;;;;;;;;;12.49;30.94;100574.91;1827517;77;20237;-61
2021/04/28 12:06:46;;;;;;;;;;;;;;;12.50;31.22;100580.56;1695373;84;20173;-61
2021/04/28 12:09:35;;;;;;;;;;;;;;;12.55;31.41;100586.91;1695519;84;21155;-62
2021/04/28 12:12:12;;;;;;;;;;;;;;;12.54;31.24;100600.59;1694534;84;20142;-62
2021/04/28 12:14:45;;;;;;;;;;;;;;;12.41;30.68;100590.80;1691022;84;20316;-61
2021/04/28 12:17:13;;;;;;;;;;;;;;;12.33;31.08;100590.59;1694943;84;20192;-62
2021/04/28 12:19:46;;;;;;;;;;;;;;;12.24;31.53;100583.34;1693061;84;20327;-63
2021/04/28 12:22:15;;;;;;;;;;;;;;;12.21;31.76;100593.20;1688896;85;21384;-65
2021/04/28 12:24:51;;;;;;;;;;;;;;;12.20;31.49;100581.33;1737884;79;20174;-62
2021/04/28 12:27:28;;;;;;;;;;;;;;;12.14;31.71;100569.61;1778228;79;20111;-62
2021/04/28 12:30:00;;;;;;;;;;;;;;;12.09;31.92;100576.19;1778324;79;20143;-62
2021/04/28 12:32:33;;;;;;;;;;;;;;;12.10;31.75;100571.09;1801696;79;20788;-62
2021/04/28 12:35:15;;;;;;;;;;;;;;;12.13;31.93;100572.02;1801720;79;22324;-63
2021/04/28 12:37:59;;;;;;;;;;;;;;;12.11;32.48;100574.09;1799126;79;20151;-62
2021/04/28 12:40:47;;;;;;;;;;;;;;;12.12;32.34;100571.70;1800105;79;20234;-64
2021/04/28 12:43:20;;;;;;;;;;;;;;;12.09;31.71;100579.69;1798154;79;20522;-62
2021/04/28 12:45:50;;;;;;;;;;;;;;;11.78;31.99;100569.84;1802581;79;20297;-60
2021/04/28 12:48:21;;;;;;;;;;;;;;;11.51;32.68;100569.25;1800522;79;21264;-61
2021/04/28 12:50:50;;;;;;;;;;;;;;;11.38;33.30;100558.09;1801395;79;20169;-61
2021/04/28 12:53:19;;;;;;;;;;;;;;;11.29;33.97;100562.09;1801351;79;20190;-62
2021/04/28 12:55:53;;;;;;;;;;;;;;;11.28;34.56;100566.64;1772329;79;20199;-62
2021/04/28 12:58:22;;;;;;;;;;;;;;;11.34;34.73;100560.93;1800030;79;20212;-61
2021/04/28 13:00:51;;;;;;;;;;;;;;;11.35;34.23;100557.19;1799282;79;21266;-61
2021/04/28 13:03:27;;;;;;;;;;;;;;;11.25;34.90;100560.38;1788079;78;20131;-62
2021/04/28 13:06:00;;;;;;;;;;;;;;;11.25;35.21;100561.72;1784006;79;20143;-62
2021/04/28 13:08:36;;;;;;;;;;;;;;;11.25;35.12;100560.38;1783113;79;20236;-61
2021/04/28 13:11:07;;;;;;;;;;;;;;;11.28;35.08;100550.55;1783307;79;20279;-63
2021/04/28 13:13:51;;;;;;;;;;;;;;;11.31;34.86;100555.47;1783034;79;21255;-62
2021/04/28 13:16:39;;;;;;;;;;;;;;;11.31;35.25;100546.61;1781717;79;20731;-63
2021/04/28 13:19:10;;;;;;;;;;;;;;;11.17;35.78;100552.08;1785051;79;20230;-61
2021/04/28 13:21:41;;;;;;;;;;;;;;;11.15;36.20;100550.64;1786150;79;20164;-61
2021/04/28 13:24:15;;;;;;;;;;;;;;;11.21;36.09;100549.77;1781435;79;20335;-61
2021/04/28 13:26:44;;;;;;;;;;;;;;;11.31;35.80;100540.71;1781391;79;21471;-61
2021/04/28 13:29:12;;;;;;;;;;;;;;;11.40;35.37;100552.81;1782113;79;20235;-60
2021/04/28 13:31:42;;;;;;;;;;;;;;;11.42;35.79;100548.56;1782643;79;20195;-61
2021/04/28 13:34:29;;;;;;;;;;;;;;;11.49;35.45;100545.83;1780159;79;20217;-64
2021/04/28 13:36:57;;;;;;;;;;;;;;;11.50;35.56;100551.52;1766365;79;20224;-61
2021/04/28 13:39:30;;;;;;;;;;;;;;;11.51;35.60;100544.58;1781009;79;21199;-61
2021/04/28 13:42:03;;;;;;;;;;;;;;;11.57;35.44;100546.38;1782586;79;20132;-62